createdAt,value
2023-02-04T00:01:58.058Z,9.78
2023-02-04T00:04:24.692Z,9.75
2023-02-04T00:06:51.176Z,9.72
2023-02-04T00:09:17.578Z,9.70
2023-02-04T00:11:44.874Z,9.67
2023-02-04T00:14:11.750Z,9.65
2023-02-04T00:16:38.154Z,9.64
2023-02-04T00:19:04.587Z,9.63
2023-02-04T00:21:30.989Z,9.62
2023-02-04T00:23:57.403Z,9.61
2023-02-04T00:26:23.887Z,9.61
2023-02-04T00:28:50.290Z,9.59
2023-02-04T00:31:16.821Z,9.62
2023-02-04T00:33:43.833Z,9.63
2023-02-04T00:36:10.425Z,9.57
2023-02-04T00:38:36.850Z,9.48
2023-02-04T00:41:03.528Z,9.49
2023-02-04T00:43:30.030Z,9.46
2023-02-04T00:45:56.550Z,9.45
2023-02-04T00:48:23.031Z,9.49
2023-02-04T00:50:49.443Z,9.49
2023-02-04T00:53:15.833Z,9.47
2023-02-04T00:55:42.271Z,9.45
2023-02-04T00:58:08.742Z,9.45
2023-02-04T01:00:35.218Z,9.42
2023-02-04T01:03:01.767Z,9.38
2023-02-04T01:05:28.217Z,9.38
2023-02-04T01:07:54.868Z,9.29
2023-02-04T01:10:21.294Z,9.30
2023-02-04T01:12:47.832Z,9.33
2023-02-04T01:15:14.569Z,9.33
2023-02-04T01:17:41.789Z,9.33
2023-02-04T01:20:09.683Z,9.26
2023-02-04T01:22:36.197Z,9.24
2023-02-04T01:25:02.710Z,9.26
2023-02-04T01:27:29.198Z,9.19
2023-02-04T01:29:55.596Z,9.17
2023-02-04T01:32:21.984Z,9.16
2023-02-04T01:34:48.368Z,9.16
2023-02-04T01:37:14.831Z,9.15
2023-02-04T01:39:41.271Z,9.14
2023-02-04T01:42:07.804Z,9.17
2023-02-04T01:44:34.247Z,9.16
2023-02-04T01:47:00.796Z,9.15
2023-02-04T01:49:27.706Z,9.17
2023-02-04T01:51:54.117Z,9.16
2023-02-04T01:54:21.991Z,9.14
2023-02-04T01:56:51.592Z,9.08
2023-02-04T01:59:19.060Z,9.05
2023-02-04T02:01:51.307Z,9.02
2023-02-04T02:04:39.350Z,8.99
2023-02-04T02:07:06.625Z,8.95
2023-02-04T02:09:34.282Z,8.90
2023-02-04T02:12:02.453Z,8.87
2023-02-04T02:14:28.870Z,8.82
2023-02-04T02:16:55.323Z,8.79
2023-02-04T02:19:30.871Z,8.76
2023-02-04T02:22:05.127Z,8.72
2023-02-04T02:24:33.827Z,8.67
2023-02-04T02:27:04.718Z,8.64
2023-02-04T02:29:31.240Z,8.63
2023-02-04T02:31:58.795Z,8.62
2023-02-04T02:34:27.312Z,8.61
2023-02-04T02:36:54.233Z,8.60
2023-02-04T02:39:21.562Z,8.56
2023-02-04T02:41:48.205Z,8.57
2023-02-04T02:44:16.714Z,8.58
2023-02-04T02:46:43.295Z,8.59
2023-02-04T02:49:15.922Z,8.61
2023-02-04T02:51:43.695Z,8.61
2023-02-04T02:54:34.083Z,8.62
2023-02-04T02:57:00.566Z,8.64
2023-02-04T02:59:27.693Z,8.64
2023-02-04T03:02:02.031Z,8.65
2023-02-04T03:04:31.959Z,8.63
2023-02-04T03:06:58.751Z,8.64
2023-02-04T03:09:27.548Z,8.65
2023-02-04T03:11:54.288Z,8.65
2023-02-04T03:14:22.391Z,8.66
2023-02-04T03:16:48.964Z,8.65
2023-02-04T03:19:15.794Z,8.64
2023-02-04T03:21:42.826Z,8.63
2023-02-04T03:24:09.579Z,8.62
2023-02-04T03:26:36.067Z,8.61
2023-02-04T03:29:02.699Z,8.59
2023-02-04T03:31:29.176Z,8.59
2023-02-04T03:33:55.601Z,8.56
2023-02-04T03:36:22.418Z,8.57
2023-02-04T03:38:48.881Z,8.59
2023-02-04T03:41:15.259Z,8.57
2023-02-04T03:43:41.662Z,8.56
2023-02-04T03:46:08.074Z,8.55
2023-02-04T03:48:34.466Z,8.55
2023-02-04T03:51:00.897Z,8.55
2023-02-04T03:53:27.431Z,8.53
2023-02-04T03:55:53.893Z,8.53
2023-02-04T03:58:21.435Z,8.53
2023-02-04T04:00:47.863Z,8.51
2023-02-04T04:03:14.305Z,8.49
2023-02-04T04:05:40.740Z,8.48
2023-02-04T04:08:07.354Z,8.48
2023-02-04T04:10:34.119Z,8.47
2023-02-04T04:13:00.715Z,8.46
2023-02-04T04:15:27.223Z,8.44
2023-02-04T04:17:53.582Z,8.42
2023-02-04T04:20:20.139Z,8.43
2023-02-04T04:22:46.518Z,8.41
2023-02-04T04:25:12.903Z,8.42
2023-02-04T04:27:39.418Z,8.42
2023-02-04T04:30:06.147Z,8.41
2023-02-04T04:32:32.552Z,8.40
2023-02-04T04:34:59.006Z,8.40
2023-02-04T04:37:25.427Z,8.41
2023-02-04T04:39:51.913Z,8.41
2023-02-04T04:42:18.288Z,8.40
2023-02-04T04:44:44.684Z,8.42
2023-02-04T04:47:11.315Z,8.42
2023-02-04T04:49:37.698Z,8.44
2023-02-04T04:52:04.385Z,8.44
2023-02-04T04:54:30.822Z,8.46
2023-02-04T04:56:57.248Z,8.47
2023-02-04T04:59:23.637Z,8.47
2023-02-04T05:01:50.018Z,8.46
2023-02-04T05:04:16.448Z,8.44
2023-02-04T05:06:42.860Z,8.44
2023-02-04T05:09:09.735Z,8.42
2023-02-04T05:11:36.134Z,8.43
2023-02-04T05:14:02.575Z,8.43
2023-02-04T05:16:29.121Z,8.42
2023-02-04T05:18:55.648Z,8.39
2023-02-04T05:21:22.082Z,8.39
2023-02-04T05:23:48.476Z,8.36
2023-02-04T05:26:25.127Z,8.35
2023-02-04T05:28:55.894Z,8.34
2023-02-04T05:31:22.359Z,8.32
2023-02-04T05:33:48.838Z,8.34
2023-02-04T05:36:15.293Z,8.31
2023-02-04T05:38:41.779Z,8.33
2023-02-04T05:41:08.162Z,8.34
2023-02-04T05:43:35.217Z,8.32
2023-02-04T05:46:02.724Z,8.34
2023-02-04T05:48:29.177Z,8.32
2023-02-04T05:50:55.617Z,8.32
2023-02-04T05:53:22.004Z,8.33
2023-02-04T05:55:48.502Z,8.34
2023-02-04T05:58:14.894Z,8.35
2023-02-04T06:00:41.360Z,8.34
2023-02-04T06:03:07.760Z,8.31
2023-02-04T06:05:34.275Z,8.29
2023-02-04T06:08:00.689Z,8.30
2023-02-04T06:10:27.117Z,8.30
2023-02-04T06:12:53.510Z,8.31
2023-02-04T06:15:20.488Z,8.30
2023-02-04T06:17:46.878Z,8.32
2023-02-04T06:20:14.830Z,8.34
2023-02-04T06:22:41.259Z,8.35
2023-02-04T06:25:07.999Z,8.36
2023-02-04T06:27:34.461Z,8.36
2023-02-04T06:30:00.877Z,8.36
2023-02-04T06:32:27.327Z,8.38
2023-02-04T06:34:53.738Z,8.37
2023-02-04T06:37:20.367Z,8.35
2023-02-04T06:39:46.779Z,8.36
2023-02-04T06:42:13.184Z,8.34
2023-02-04T06:44:39.641Z,8.35
2023-02-04T06:47:06.042Z,8.35
2023-02-04T06:49:32.485Z,8.35
2023-02-04T06:51:58.914Z,8.37
2023-02-04T06:54:25.385Z,8.38
2023-02-04T06:56:51.826Z,8.38
2023-02-04T06:59:18.442Z,8.39
2023-02-04T07:01:45.120Z,8.41
2023-02-04T07:04:11.543Z,8.40
2023-02-04T07:06:37.939Z,8.41
2023-02-04T07:09:04.467Z,8.42
2023-02-04T07:11:30.905Z,8.44
2023-02-04T07:13:57.448Z,8.44
2023-02-04T07:16:23.857Z,8.45
2023-02-04T07:18:50.285Z,8.43
2023-02-04T07:21:16.649Z,8.43
2023-02-04T07:23:43.060Z,8.44
2023-02-04T07:26:09.486Z,8.45
2023-02-04T07:28:36.958Z,8.44
2023-02-04T07:31:03.676Z,8.44
2023-02-04T07:33:30.241Z,8.45
2023-02-04T07:35:56.654Z,8.47
2023-02-04T07:38:23.096Z,8.48
2023-02-04T07:40:49.559Z,8.49
2023-02-04T07:43:15.966Z,8.51
2023-02-04T07:45:42.352Z,8.53
2023-02-04T07:48:08.748Z,8.57
2023-02-04T07:50:35.444Z,8.59
2023-02-04T07:53:02.122Z,8.62
2023-02-04T07:55:28.684Z,8.62
2023-02-04T07:57:58.328Z,8.64
2023-02-04T08:00:24.775Z,8.62
2023-02-04T08:02:51.335Z,8.63
2023-02-04T08:05:18.143Z,8.64
2023-02-04T08:07:44.646Z,8.62
2023-02-04T08:10:11.983Z,8.60
2023-02-04T08:12:38.487Z,8.60
2023-02-04T08:15:07.784Z,8.62
2023-02-04T08:17:34.522Z,8.64
2023-02-04T08:20:00.990Z,8.67
2023-02-04T08:22:27.396Z,8.71
2023-02-04T08:24:53.842Z,8.76
2023-02-04T08:27:20.437Z,8.80
2023-02-04T08:29:46.843Z,8.83
2023-02-04T08:32:13.487Z,8.86
2023-02-04T08:34:40.249Z,8.86
2023-02-04T08:37:06.734Z,8.90
2023-02-04T08:39:33.292Z,8.95
2023-02-04T08:41:59.720Z,8.99
2023-02-04T08:44:26.166Z,8.99
2023-02-04T08:46:52.626Z,9.00
2023-02-04T08:49:19.111Z,9.00
2023-02-04T08:51:45.640Z,9.00
2023-02-04T08:54:12.102Z,9.03
2023-02-04T08:56:38.517Z,8.99
2023-02-04T08:59:04.946Z,9.01
2023-02-04T09:01:31.388Z,9.04
2023-02-04T09:03:58.204Z,9.05
2023-02-04T09:06:24.604Z,9.06
2023-02-04T09:08:50.998Z,9.09
2023-02-04T09:11:17.441Z,9.13
2023-02-04T09:13:43.902Z,9.14
2023-02-04T09:16:10.838Z,9.18
2023-02-04T09:18:37.402Z,9.21
2023-02-04T09:21:03.999Z,9.25
2023-02-04T09:23:30.465Z,9.28
2023-02-04T09:25:56.974Z,9.33
2023-02-04T09:28:23.329Z,9.36
2023-02-04T09:30:49.774Z,9.41
2023-02-04T09:33:19.264Z,9.48
2023-02-04T09:35:45.693Z,9.54
2023-02-04T09:38:12.122Z,9.62
2023-02-04T09:40:43.189Z,9.64
2023-02-04T09:43:17.794Z,9.66
2023-02-04T09:45:44.351Z,9.63
2023-02-04T09:48:14.109Z,9.63
2023-02-04T09:50:41.624Z,9.64
2023-02-04T09:53:13.971Z,9.71
2023-02-04T09:55:43.211Z,9.70
2023-02-04T09:58:21.942Z,9.65
2023-02-04T10:00:56.580Z,9.69
2023-02-04T10:03:23.295Z,9.70
2023-02-04T10:05:51.443Z,9.69
2023-02-04T10:08:20.824Z,9.72
2023-02-04T10:10:49.575Z,9.77
2023-02-04T10:13:23.727Z,9.76
2023-02-04T10:15:51.074Z,9.79
2023-02-04T10:18:26.725Z,9.80
2023-02-04T10:21:00.827Z,9.84
2023-02-04T10:23:27.289Z,9.82
2023-02-04T10:25:53.710Z,9.88
2023-02-04T10:28:20.201Z,9.90
2023-02-04T10:30:47.164Z,9.94
2023-02-04T10:33:15.337Z,9.99
2023-02-04T10:35:51.234Z,10.17
2023-02-04T10:38:18.280Z,10.34
2023-02-04T10:40:46.147Z,10.52
2023-02-04T10:43:22.726Z,10.66
2023-02-04T10:45:58.105Z,10.72
2023-02-04T10:48:25.299Z,10.73
2023-02-04T10:50:51.871Z,10.78
2023-02-04T10:53:39.180Z,10.84
2023-02-04T10:56:15.885Z,11.03
2023-02-04T10:58:42.858Z,11.10
2023-02-04T11:01:11.994Z,11.17
2023-02-04T11:03:40.033Z,11.26
2023-02-04T11:06:17.717Z,11.46
2023-02-04T11:08:44.308Z,11.68
2023-02-04T11:11:20.163Z,11.96
2023-02-04T11:13:49.470Z,11.97
2023-02-04T11:16:18.823Z,11.97
2023-02-04T11:18:51.390Z,11.98
2023-02-04T11:21:23.774Z,12.07
2023-02-04T11:23:51.025Z,12.10
2023-02-04T11:26:33.727Z,12.24
2023-02-04T11:29:00.061Z,12.52
2023-02-04T11:31:28.678Z,12.70
2023-02-04T11:34:18.376Z,12.91
2023-02-04T11:37:04.429Z,13.30
2023-02-04T11:39:47.928Z,13.58
2023-02-04T11:42:29.747Z,13.83
2023-02-04T11:45:00.784Z,14.06
2023-02-04T11:47:33.669Z,14.17
2023-02-04T11:50:04.351Z,14.27
2023-02-04T11:52:30.882Z,14.29
2023-02-04T11:55:00.349Z,14.20
2023-02-04T11:57:27.298Z,14.14
2023-02-04T11:59:54.560Z,14.14
2023-02-04T12:02:23.757Z,14.25
2023-02-04T12:05:09.221Z,14.38
2023-02-04T12:07:36.286Z,14.40
2023-02-04T12:10:21.894Z,14.51
2023-02-04T12:12:55.795Z,14.52
2023-02-04T12:15:24.952Z,14.64
2023-02-04T12:18:04.788Z,14.45
2023-02-04T12:20:31.234Z,14.41
2023-02-04T12:22:57.766Z,14.31
2023-02-04T12:25:24.973Z,14.28
2023-02-04T12:27:51.758Z,14.12
2023-02-04T12:30:18.563Z,14.22
2023-02-04T12:32:44.939Z,14.36
2023-02-04T12:35:11.475Z,14.20
2023-02-04T12:37:37.934Z,13.99
2023-02-04T12:40:04.811Z,13.80
2023-02-04T12:42:31.201Z,13.61
2023-02-04T12:44:57.626Z,13.47
2023-02-04T12:47:24.045Z,13.35
2023-02-04T12:49:50.421Z,13.23
2023-02-04T12:52:16.835Z,13.05
2023-02-04T12:54:43.740Z,12.91
2023-02-04T12:57:11.565Z,12.78
2023-02-04T12:59:37.977Z,12.72
2023-02-04T13:02:04.435Z,12.65
2023-02-04T13:04:30.846Z,12.60
2023-02-04T13:06:57.190Z,12.56
2023-02-04T13:09:23.610Z,12.48
2023-02-04T13:11:50.058Z,12.32
2023-02-04T13:14:16.496Z,12.22
2023-02-04T13:16:42.892Z,12.09
2023-02-04T13:19:09.346Z,12.03
2023-02-04T13:21:35.778Z,12.01
2023-02-04T13:24:02.212Z,11.93
2023-02-04T13:26:28.583Z,11.92
2023-02-04T13:28:54.990Z,11.89
2023-02-04T13:31:21.544Z,11.87
2023-02-04T13:33:47.965Z,11.86
2023-02-04T13:36:14.395Z,11.90
2023-02-04T13:38:40.824Z,11.87
2023-02-04T13:41:07.266Z,11.87
2023-02-04T13:43:33.678Z,11.85
2023-02-04T13:46:01.907Z,11.81
2023-02-04T13:48:28.324Z,11.85
2023-02-04T13:50:54.743Z,11.77
2023-02-04T13:53:21.202Z,11.67
2023-02-04T13:55:47.613Z,11.72
2023-02-04T13:58:14.158Z,11.73
2023-02-04T14:00:40.627Z,11.73
2023-02-04T14:03:07.020Z,11.76
2023-02-04T14:05:33.444Z,11.77
2023-02-04T14:07:59.898Z,11.79
2023-02-04T14:10:27.104Z,11.82
2023-02-04T14:12:54.091Z,11.80
2023-02-04T14:15:20.625Z,11.90
2023-02-04T14:17:47.073Z,12.02
2023-02-04T14:20:13.519Z,12.11
2023-02-04T14:22:40.005Z,12.22
2023-02-04T14:25:06.904Z,12.32
2023-02-04T14:27:35.314Z,12.51
2023-02-04T14:30:01.809Z,12.69
2023-02-04T14:32:28.275Z,12.90
2023-02-04T14:34:54.774Z,13.08
2023-02-04T14:37:21.210Z,13.38
2023-02-04T14:39:47.580Z,13.66
2023-02-04T14:42:13.971Z,13.95
2023-02-04T14:44:40.384Z,14.14
2023-02-04T14:47:06.838Z,14.29
2023-02-04T14:49:34.826Z,14.32
2023-02-04T14:52:01.338Z,14.12
2023-02-04T14:54:27.774Z,14.20
2023-02-04T14:56:54.519Z,14.13
2023-02-04T14:59:21.146Z,14.17
2023-02-04T15:01:47.586Z,14.23
2023-02-04T15:04:14.042Z,14.26
2023-02-04T15:06:40.592Z,14.22
2023-02-04T15:09:07.114Z,14.22
2023-02-04T15:11:34.568Z,14.07
2023-02-04T15:14:01.009Z,14.11
2023-02-04T15:16:27.449Z,14.08
2023-02-04T15:18:54.049Z,14.11
2023-02-04T15:21:20.485Z,14.06
2023-02-04T15:23:47.466Z,13.94
2023-02-04T15:26:14.483Z,13.77
2023-02-04T15:28:41.003Z,13.63
2023-02-04T15:31:07.600Z,13.49
2023-02-04T15:33:34.029Z,13.29
2023-02-04T15:36:00.416Z,13.04
2023-02-04T15:38:26.850Z,12.88
2023-02-04T15:40:53.262Z,12.70
2023-02-04T15:43:19.951Z,12.50
2023-02-04T15:45:46.414Z,12.29
2023-02-04T15:48:12.814Z,12.15
2023-02-04T15:50:39.550Z,11.98
2023-02-04T15:53:06.700Z,11.87
2023-02-04T15:55:33.170Z,11.74
2023-02-04T15:57:59.579Z,11.58
2023-02-04T16:00:26.097Z,11.50
2023-02-04T16:02:52.518Z,11.39
2023-02-04T16:05:19.070Z,11.29
2023-02-04T16:07:45.509Z,11.17
2023-02-04T16:10:11.994Z,11.06
2023-02-04T16:12:38.480Z,10.97
2023-02-04T16:15:05.520Z,10.85
2023-02-04T16:17:32.024Z,10.74
2023-02-04T16:19:58.506Z,10.64
2023-02-04T16:22:25.045Z,10.51
2023-02-04T16:24:52.857Z,10.40
2023-02-04T16:27:19.876Z,10.28
2023-02-04T16:29:47.132Z,10.15
2023-02-04T16:32:13.905Z,10.03
2023-02-04T16:34:40.368Z,9.92
2023-02-04T16:37:06.950Z,9.80
2023-02-04T16:39:33.427Z,9.68
2023-02-04T16:41:59.955Z,9.57
2023-02-04T16:44:26.346Z,9.48
2023-02-04T16:46:52.728Z,9.39
2023-02-04T16:49:19.116Z,9.32
2023-02-04T16:51:45.662Z,9.26
2023-02-04T16:54:12.183Z,9.16
2023-02-04T16:56:38.599Z,9.05
2023-02-04T16:59:05.239Z,8.95
2023-02-04T17:01:31.998Z,8.83
2023-02-04T17:03:58.371Z,8.70
2023-02-04T17:06:26.714Z,8.61
2023-02-04T17:08:53.231Z,8.52
2023-02-04T17:11:29.028Z,8.46
2023-02-04T17:13:56.552Z,8.42
2023-02-04T17:16:23.008Z,8.35
2023-02-04T17:18:49.499Z,8.30
2023-02-04T17:21:17.347Z,8.26
2023-02-04T17:23:44.649Z,8.24
2023-02-04T17:26:11.167Z,8.21
2023-02-04T17:28:37.574Z,8.18
2023-02-04T17:31:04.286Z,8.15
2023-02-04T17:33:30.949Z,8.09
2023-02-04T17:35:57.328Z,8.04
2023-02-04T17:38:26.380Z,7.99
2023-02-04T17:40:55.816Z,7.98
2023-02-04T17:43:23.694Z,7.97
2023-02-04T17:45:51.085Z,7.94
2023-02-04T17:48:17.983Z,7.93
2023-02-04T17:50:44.868Z,7.90
2023-02-04T17:53:11.440Z,7.87
2023-02-04T17:55:39.425Z,7.86
2023-02-04T17:58:16.833Z,7.84
2023-02-04T18:00:45.779Z,7.83
2023-02-04T18:03:19.364Z,7.84
2023-02-04T18:05:48.451Z,7.84
2023-02-04T18:08:24.706Z,7.83
2023-02-04T18:10:53.994Z,7.84
2023-02-04T18:13:32.812Z,7.85
2023-02-04T18:16:02.870Z,7.83
2023-02-04T18:18:36.534Z,7.82
2023-02-04T18:21:19.035Z,7.80
2023-02-04T18:23:46.055Z,7.79
2023-02-04T18:26:25.783Z,7.80
2023-02-04T18:28:52.644Z,7.80
2023-02-04T18:31:39.309Z,7.80
2023-02-04T18:34:20.927Z,7.78
2023-02-04T18:36:48.252Z,7.76
2023-02-04T18:39:34.894Z,7.73
2023-02-04T18:42:01.301Z,7.70
2023-02-04T18:44:37.936Z,7.69
2023-02-04T18:47:23.890Z,7.66
2023-02-04T18:49:50.435Z,7.61
2023-02-04T18:52:21.327Z,7.59
2023-02-04T18:55:18.276Z,7.55
2023-02-04T18:57:44.746Z,7.54
2023-02-04T19:00:14.551Z,7.55
2023-02-04T19:02:48.333Z,7.55
2023-02-04T19:05:47.493Z,7.54
2023-02-04T19:08:29.218Z,7.57
2023-02-04T19:10:57.968Z,7.57
2023-02-04T19:13:36.406Z,7.60
2023-02-04T19:16:23.312Z,7.59
2023-02-04T19:18:50.947Z,7.58
2023-02-04T19:21:28.579Z,7.58
2023-02-04T19:24:01.108Z,7.58
2023-02-04T19:26:40.163Z,7.57
2023-02-04T19:29:24.901Z,7.57
2023-02-04T19:31:58.511Z,7.60
2023-02-04T19:34:28.527Z,7.59
2023-02-04T19:36:55.280Z,7.58
2023-02-04T19:39:40.204Z,7.58
2023-02-04T19:42:32.809Z,7.57
2023-02-04T19:45:16.976Z,7.56
2023-02-04T19:47:44.757Z,7.57
2023-02-04T19:50:13.851Z,7.57
2023-02-04T19:53:09.284Z,7.55
2023-02-04T19:55:44.174Z,7.54
2023-02-04T19:58:24.858Z,7.54
2023-02-04T20:01:04.840Z,7.55
2023-02-04T20:03:42.069Z,7.58
2023-02-04T20:06:18.243Z,7.58
2023-02-04T20:08:46.850Z,7.60
2023-02-04T20:11:37.993Z,7.59
2023-02-04T20:14:10.469Z,7.60
2023-02-04T20:17:18.408Z,7.59
2023-02-04T20:19:45.452Z,7.62
2023-02-04T20:22:32.029Z,7.65
2023-02-04T20:25:26.142Z,7.65
2023-02-04T20:27:55.464Z,7.65
2023-02-04T20:30:26.957Z,7.68
2023-02-04T20:32:56.699Z,7.72
2023-02-04T20:35:23.021Z,7.76
2023-02-04T20:37:52.719Z,7.77
2023-02-04T20:40:23.838Z,7.79
2023-02-04T20:43:01.526Z,7.79
2023-02-04T20:45:36.505Z,7.78
2023-02-04T20:48:15.165Z,7.74
2023-02-04T20:50:52.823Z,7.72
2023-02-04T20:53:36.699Z,7.72
2023-02-04T20:56:28.625Z,7.72
2023-02-04T20:59:23.749Z,7.72
2023-02-04T21:01:50.585Z,7.76
2023-02-04T21:04:25.884Z,7.79
2023-02-04T21:06:54.824Z,7.81
2023-02-04T21:09:25.466Z,7.81
2023-02-04T21:11:54.121Z,7.80
2023-02-04T21:14:21.713Z,7.79
2023-02-04T21:16:48.419Z,7.81
2023-02-04T21:19:15.841Z,7.79
2023-02-04T21:21:42.470Z,7.79
2023-02-04T21:24:09.461Z,7.77
2023-02-04T21:26:35.964Z,7.76
2023-02-04T21:29:02.555Z,7.76
2023-02-04T21:31:29.381Z,7.77
2023-02-04T21:33:56.966Z,7.78
2023-02-04T21:36:24.400Z,7.78
2023-02-04T21:38:51.128Z,7.79
2023-02-04T21:41:17.704Z,7.79
2023-02-04T21:43:44.104Z,7.80
2023-02-04T21:46:10.580Z,7.82
2023-02-04T21:48:37.002Z,7.79
2023-02-04T21:51:03.524Z,7.79
2023-02-04T21:53:29.995Z,7.77
2023-02-04T21:55:59.045Z,7.74
2023-02-04T21:58:28.625Z,7.74
2023-02-04T22:00:55.148Z,7.71
2023-02-04T22:03:21.669Z,7.71
2023-02-04T22:05:48.217Z,7.71
2023-02-04T22:08:14.828Z,7.74
2023-02-04T22:10:41.544Z,7.75
2023-02-04T22:13:08.067Z,7.78
2023-02-04T22:15:34.976Z,7.78
2023-02-04T22:18:02.400Z,7.78
2023-02-04T22:20:30.447Z,7.77
2023-02-04T22:22:59.237Z,7.77
2023-02-04T22:25:25.802Z,7.76
2023-02-04T22:27:52.482Z,7.75
2023-02-04T22:30:19.925Z,7.74
2023-02-04T22:32:46.550Z,7.74
2023-02-04T22:35:14.263Z,7.75
2023-02-04T22:37:41.881Z,7.75
2023-02-04T22:40:10.121Z,7.73
2023-02-04T22:42:36.551Z,7.72
2023-02-04T22:45:03.977Z,7.72
2023-02-04T22:47:30.965Z,7.71
2023-02-04T22:49:57.617Z,7.71
2023-02-04T22:52:24.402Z,7.70
2023-02-04T22:54:51.685Z,7.70
2023-02-04T22:57:18.456Z,7.70
2023-02-04T22:59:44.913Z,7.70
2023-02-04T23:02:11.432Z,7.72
2023-02-04T23:04:37.858Z,7.72
2023-02-04T23:07:04.773Z,7.71
2023-02-04T23:09:32.879Z,7.71
2023-02-04T23:12:12.537Z,7.70
2023-02-04T23:14:45.546Z,7.70
2023-02-04T23:17:13.252Z,7.71
2023-02-04T23:19:40.209Z,7.71
2023-02-04T23:22:08.146Z,7.73
2023-02-04T23:24:35.735Z,7.75
2023-02-04T23:27:04.094Z,7.75
2023-02-04T23:29:35.471Z,7.74
2023-02-04T23:32:02.424Z,7.76
2023-02-04T23:34:28.983Z,7.68
2023-02-04T23:36:55.425Z,7.67
2023-02-04T23:39:22.243Z,7.65
2023-02-04T23:41:49.402Z,7.63
2023-02-04T23:44:16.270Z,7.64
2023-02-04T23:46:43.113Z,7.62
2023-02-04T23:49:10.099Z,7.62
2023-02-04T23:51:36.711Z,7.61
2023-02-04T23:54:03.433Z,7.60
2023-02-04T23:56:30.258Z,7.58
2023-02-04T23:58:56.722Z,7.55
